Time;durP1;ratioP1;P1;durP2;ratioP2;P2;SDS_P1;SDS_P2;PMS_P1;PMS_P2;Temp;Humidity;BMP_temperature;BMP_pressure;BME280_temperature;BME280_humidity;BME280_pressure;Samples;Min_cycle;Max_cycle;Signal;HPM_P1;HPM_P2
2022/05/25 00:02:21;;;;;;;6.10;3.55;;;;;;;10.78;100.00;100896.50;6172738;28;20053;-71
2022/05/25 00:05:22;;;;;;;5.63;3.40;;;;;;;10.78;100.00;100893.88;6173537;28;20057;-72
2022/05/25 00:08:26;;;;;;;5.32;3.80;;;;;;;10.75;100.00;100896.63;6172125;28;20055;-71
2022/05/25 00:11:27;;;;;;;5.50;3.20;;;;;;;10.71;100.00;100897.72;6168474;28;20050;-71
2022/05/25 00:14:29;;;;;;;8.20;2.97;;;;;;;10.67;100.00;100899.66;6173237;28;20043;-71
2022/05/25 00:17:30;;;;;;;7.75;3.42;;;;;;;10.61;100.00;100903.44;6174619;28;20502;-71
2022/05/25 00:20:32;;;;;;;5.22;3.03;;;;;;;10.56;100.00;100907.25;6177229;28;20053;-71
2022/05/25 00:23:34;;;;;;;4.82;3.15;;;;;;;10.58;100.00;100908.00;6181648;28;20054;-71
2022/05/25 00:26:36;;;;;;;4.82;3.15;;;;;;;10.55;100.00;100913.44;6181473;28;20046;-71
2022/05/25 00:29:38;;;;;;;4.32;2.80;;;;;;;10.53;100.00;100917.91;6181341;28;20081;-71
2022/05/25 00:32:40;;;;;;;4.85;3.03;;;;;;;10.50;100.00;100911.03;6182882;28;20066;-71
2022/05/25 00:35:42;;;;;;;4.25;3.10;;;;;;;10.47;100.00;100913.81;6180511;28;20173;-71
2022/05/25 00:38:45;;;;;;;7.13;3.20;;;;;;;10.43;100.00;100909.63;6175405;28;20062;-71
2022/05/25 00:41:46;;;;;;;4.35;3.00;;;;;;;10.40;100.00;100913.28;6178728;28;20050;-72
2022/05/25 00:44:48;;;;;;;5.47;3.95;;;;;;;10.37;100.00;100918.69;6180439;28;20054;-71
2022/05/25 00:47:52;;;;;;;6.65;3.70;;;;;;;10.35;100.00;100912.63;6182217;28;20499;-71
2022/05/25 00:54:18;;;;;;;6.45;3.72;;;;;;;10.32;100.00;100918.06;6178340;28;20507;-71
2022/05/25 00:57:23;;;;;;;5.97;4.07;;;;;;;10.29;100.00;100914.72;6178977;28;20193;-71
2022/05/25 01:00:26;;;;;;;5.63;3.20;;;;;;;10.27;100.00;100921.84;6180891;28;20055;-71
2022/05/25 01:03:28;;;;;;;5.55;3.60;;;;;;;10.24;100.00;100925.47;6181058;28;20410;-71
2022/05/25 01:06:49;;;;;;;6.95;4.20;;;;;;;10.24;100.00;100935.97;6180841;28;20046;-71
2022/05/25 01:10:03;;;;;;;11.13;4.10;;;;;;;10.26;100.00;100933.25;6157017;28;20392;-72
2022/05/25 01:13:14;;;;;;;7.50;3.63;;;;;;;10.21;100.00;100936.06;6163800;28;20047;-71
2022/05/25 01:16:28;;;;;;;5.60;3.42;;;;;;;10.19;100.00;100934.47;6180859;28;20185;-72
2022/05/25 01:19:56;;;;;;;5.85;3.70;;;;;;;10.16;100.00;100941.56;6179212;28;20057;-71
2022/05/25 01:23:32;;;;;;;5.85;3.92;;;;;;;10.14;100.00;100935.53;6174319;28;20051;-71
2022/05/25 01:26:58;;;;;;;6.03;3.22;;;;;;;10.10;100.00;100943.63;6179544;28;20564;-71
2022/05/25 01:30:08;;;;;;;5.68;3.63;;;;;;;10.10;100.00;100946.25;6173867;28;20051;-71
2022/05/25 01:33:16;;;;;;;7.35;3.30;;;;;;;10.04;100.00;100954.44;6172522;28;20411;-71
2022/05/25 01:36:24;;;;;;;8.18;3.97;;;;;;;10.05;100.00;100964.03;6176669;28;20410;-71
2022/05/25 01:39:30;;;;;;;6.32;3.67;;;;;;;10.06;100.00;100960.47;6176981;28;20058;-71
2022/05/25 01:42:40;;;;;;;5.25;3.58;;;;;;;10.03;100.00;100960.59;6176710;28;20046;-72
2022/05/25 01:45:47;;;;;;;5.60;3.42;;;;;;;10.00;100.00;100961.63;6176636;28;20050;-71
2022/05/25 01:48:50;;;;;;;4.97;3.53;;;;;;;9.99;100.00;100957.28;6188435;28;20137;-71
2022/05/25 01:51:56;;;;;;;6.22;3.67;;;;;;;9.99;100.00;100959.91;6186019;28;20054;-71
2022/05/25 01:55:01;;;;;;;6.35;3.78;;;;;;;10.02;100.00;100958.91;6176428;28;20050;-71
2022/05/25 01:58:07;;;;;;;5.55;3.47;;;;;;;10.05;100.00;100961.38;6177007;28;20051;-71
2022/05/25 02:01:12;;;;;;;8.13;3.38;;;;;;;10.03;100.00;100961.44;6176474;28;20046;-72
2022/05/25 02:04:22;;;;;;;4.60;3.13;;;;;;;9.99;100.00;100956.41;6176552;28;20510;-70
2022/05/25 02:07:38;;;;;;;5.50;3.15;;;;;;;9.90;100.00;100955.06;6176473;28;20081;-71
2022/05/25 02:10:49;;;;;;;6.10;3.60;;;;;;;9.89;100.00;100961.25;6176331;28;20055;-71
2022/05/25 02:14:01;;;;;;;7.05;3.92;;;;;;;9.85;100.00;100963.16;6175178;28;20054;-71
2022/05/25 02:17:11;;;;;;;5.75;3.30;;;;;;;9.81;100.00;100955.50;6176482;28;20178;-71
2022/05/25 02:20:14;;;;;;;;;;;;;;;9.80;100.00;100959.91;6176256;28;20483;-71
2022/05/25 02:23:20;;;;;;;6.97;3.67;;;;;;;9.83;100.00;100965.03;6174520;28;19948;-72
2022/05/25 02:26:27;;;;;;;4.93;2.90;;;;;;;9.82;100.00;100959.84;6171211;28;20418;-71
2022/05/25 02:29:35;;;;;;;4.60;2.92;;;;;;;9.78;100.00;100969.63;6172699;28;20102;-71
2022/05/25 02:32:41;;;;;;;5.68;3.42;;;;;;;9.79;100.00;100973.97;6175638;28;20522;-72
2022/05/25 02:35:45;;;;;;;6.32;3.45;;;;;;;9.82;100.00;100975.59;6171401;28;20058;-71
2022/05/25 02:38:47;;;;;;;6.50;3.15;;;;;;;9.88;100.00;100980.56;6175649;28;20054;-71
2022/05/25 02:41:50;;;;;;;6.18;3.15;;;;;;;9.90;100.00;100976.94;6175161;28;20077;-71
2022/05/25 02:44:51;;;;;;;11.05;3.95;;;;;;;9.91;100.00;100977.81;6175286;28;20051;-72
2022/05/25 02:47:54;;;;;;;7.43;3.47;;;;;;;9.86;100.00;100977.16;6175636;28;20051;-71
2022/05/25 02:50:56;;;;;;;5.53;3.40;;;;;;;9.85;100.00;100980.69;6175340;28;20141;-71
2022/05/25 02:53:57;;;;;;;7.03;3.63;;;;;;;9.92;100.00;100982.13;6175106;28;20113;-71
2022/05/25 02:56:59;;;;;;;6.30;3.30;;;;;;;10.01;100.00;100984.31;6175124;28;20568;-71
2022/05/25 03:00:00;;;;;;;6.18;3.70;;;;;;;10.06;100.00;100989.34;6174880;28;20074;-71
2022/05/25 03:03:04;;;;;;;5.70;3.22;;;;;;;10.04;100.00;100985.97;6175076;28;20050;-71
2022/05/25 03:06:08;;;;;;;8.15;4.28;;;;;;;10.00;100.00;100992.28;6174811;28;20133;-71
2022/05/25 03:09:09;;;;;;;5.68;3.72;;;;;;;9.97;100.00;100992.41;6174974;28;20047;-71
2022/05/25 03:12:13;;;;;;;4.70;3.40;;;;;;;9.96;100.00;101003.84;6175040;28;20058;-71
2022/05/25 03:15:20;;;;;;;7.15;3.47;;;;;;;9.95;100.00;101005.63;6198411;28;20080;-72
2022/05/25 03:18:22;;;;;;;5.72;2.67;;;;;;;9.91;100.00;101001.44;6179747;28;20047;-72
2022/05/25 03:21:25;;;;;;;6.82;3.47;;;;;;;9.92;100.00;101008.38;6174409;28;20050;-71
2022/05/25 03:24:26;;;;;;;7.22;3.40;;;;;;;9.92;100.00;101003.13;6174064;28;20070;-71
2022/05/25 03:27:28;;;;;;;6.63;3.42;;;;;;;9.88;100.00;101010.28;6174288;28;20181;-71
2022/05/25 03:30:29;;;;;;;7.90;3.53;;;;;;;9.83;100.00;101014.03;6174511;28;20072;-71
2022/05/25 03:33:33;;;;;;;6.78;3.55;;;;;;;9.81;100.00;101013.25;6174228;28;20051;-71
2022/05/25 03:36:34;;;;;;;6.82;4.00;;;;;;;9.81;100.00;101023.75;6173810;28;20054;-71
2022/05/25 03:39:36;;;;;;;7.78;4.20;;;;;;;9.73;100.00;101021.50;6177722;28;20434;-71
2022/05/25 03:42:39;;;;;;;4.35;3.05;;;;;;;9.69;100.00;101027.78;6171680;28;20050;-71
2022/05/25 03:45:41;;;;;;;7.00;3.88;;;;;;;9.66;100.00;101030.56;6165937;28;20502;-70
2022/05/25 03:48:43;;;;;;;8.40;4.05;;;;;;;9.70;100.00;101031.28;6171473;28;20051;-71
2022/05/25 03:51:45;;;;;;;6.38;3.35;;;;;;;9.68;100.00;101027.88;6173243;28;20051;-71
2022/05/25 03:54:47;;;;;;;5.95;3.40;;;;;;;9.67;100.00;101024.38;6173176;28;20078;-71
2022/05/25 03:57:48;;;;;;;5.47;3.22;;;;;;;9.69;100.00;101027.78;6173918;28;20047;-71
2022/05/25 04:00:49;;;;;;;7.13;3.25;;;;;;;9.68;100.00;101025.25;6173864;28;20058;-71
2022/05/25 04:03:52;;;;;;;7.20;3.58;;;;;;;9.69;100.00;101026.94;6179308;28;20046;-71
2022/05/25 04:06:53;;;;;;;7.05;3.88;;;;;;;9.67;100.00;101034.88;6197887;28;20050;-71
2022/05/25 04:09:55;;;;;;;5.85;3.42;;;;;;;9.68;100.00;101031.34;6197754;28;20053;-72
2022/05/25 04:12:56;;;;;;;4.90;2.85;;;;;;;9.70;100.00;101023.41;6197841;28;20053;-71
2022/05/25 04:15:57;;;;;;;9.00;4.35;;;;;;;9.71;100.00;101032.97;6174050;28;20047;-71
2022/05/25 04:19:01;;;;;;;6.38;3.17;;;;;;;9.74;100.00;101027.59;6173748;28;20061;-70
2022/05/25 04:22:03;;;;;;;5.75;3.35;;;;;;;9.78;100.00;101039.66;6173555;28;20147;-71
2022/05/25 04:25:07;;;;;;;5.50;3.15;;;;;;;9.79;100.00;101039.56;6173773;28;20051;-71
2022/05/25 04:28:09;;;;;;;4.10;3.17;;;;;;;9.81;100.00;101043.00;6173420;28;20407;-71
2022/05/25 04:31:11;;;;;;;5.03;2.90;;;;;;;9.89;100.00;101042.63;6194190;28;20050;-71
2022/05/25 04:34:13;;;;;;;6.85;3.50;;;;;;;9.91;100.00;101038.19;6197371;28;20061;-72
2022/05/25 04:40:37;;;;;;;4.80;3.05;;;;;;;10.03;100.00;101050.72;6181719;28;20054;-72
2022/05/25 04:43:39;;;;;;;5.38;3.22;;;;;;;10.05;100.00;101051.50;6172321;28;20070;-70
2022/05/25 04:46:40;;;;;;;4.05;2.88;;;;;;;10.09;100.00;101049.59;6165117;28;20054;-71
2022/05/25 04:49:44;;;;;;;4.80;2.95;;;;;;;10.13;100.00;101051.16;6173512;28;20078;-71
2022/05/25 04:52:46;;;;;;;5.13;3.15;;;;;;;10.15;100.00;101057.19;6173079;28;20185;-71
2022/05/25 04:59:07;;;;;;;6.22;3.65;;;;;;;10.24;100.00;101058.53;6197259;28;20054;-71
2022/05/25 05:02:09;;;;;;;6.05;3.03;;;;;;;10.30;100.00;101053.88;6195647;28;20058;-71
2022/05/25 05:05:14;;;;;;;4.15;3.05;;;;;;;10.36;100.00;101060.63;6172842;28;20042;-71
2022/05/25 05:08:16;;;;;;;5.53;3.22;;;;;;;10.42;100.00;101057.69;6176136;28;20090;-71
2022/05/25 05:11:19;;;;;;;5.97;3.20;;;;;;;10.46;100.00;101061.03;6177381;28;20047;-71
2022/05/25 05:14:21;;;;;;;4.60;2.88;;;;;;;10.51;100.00;101059.88;6176159;28;20051;-71
2022/05/25 05:17:22;;;;;;;4.10;2.45;;;;;;;10.62;100.00;101073.34;6177560;28;20073;-71
2022/05/25 05:20:25;;;;;;;5.88;3.63;;;;;;;10.67;100.00;101073.13;6184136;28;20053;-71
2022/05/25 05:23:26;;;;;;;5.22;3.38;;;;;;;10.75;100.00;101070.97;6197617;28;20058;-71
2022/05/25 05:26:28;;;;;;;4.82;3.15;;;;;;;10.82;100.00;101072.41;6176272;28;20043;-70
2022/05/25 05:29:30;;;;;;;6.15;3.22;;;;;;;10.84;100.00;101074.94;6177030;28;20420;-71
2022/05/25 05:32:31;;;;;;;7.35;2.95;;;;;;;10.88;100.00;101076.50;6176884;28;20053;-71
2022/05/25 05:35:34;;;;;;;6.25;3.50;;;;;;;10.99;100.00;101073.31;6177075;28;20058;-72
2022/05/25 05:38:45;;;;;;;6.70;3.92;;;;;;;11.01;100.00;101082.84;6176964;28;20043;-71
2022/05/25 05:41:50;;;;;;;7.15;3.63;;;;;;;11.11;100.00;101083.25;6176970;28;20507;-71
2022/05/25 05:44:55;;;;;;;6.03;3.22;;;;;;;11.16;100.00;101082.06;6176876;28;20058;-71
2022/05/25 05:48:01;;;;;;;5.80;3.72;;;;;;;11.22;100.00;101080.94;6199582;28;20057;-72
2022/05/25 05:51:05;;;;;;;7.82;4.10;;;;;;;11.26;100.00;101087.72;6177961;28;20079;-72
2022/05/25 05:54:07;;;;;;;6.75;4.45;;;;;;;11.33;100.00;101088.28;6176397;28;20050;-71
2022/05/25 05:57:08;;;;;;;5.97;4.00;;;;;;;11.39;100.00;101095.84;6175114;28;20051;-72
2022/05/25 06:00:11;;;;;;;8.48;4.88;;;;;;;11.54;100.00;101091.59;6170118;28;20047;-72
2022/05/25 06:03:13;;;;;;;8.45;4.50;;;;;;;11.57;100.00;101086.16;6175876;28;20186;-71
2022/05/25 06:06:16;;;;;;;15.30;4.50;;;;;;;11.61;100.00;101095.59;6174585;28;20076;-72
2022/05/25 06:09:17;;;;;;;5.43;3.50;;;;;;;11.66;100.00;101094.41;6176435;28;20061;-70
2022/05/25 06:12:19;;;;;;;7.90;4.63;;;;;;;11.69;100.00;101101.31;6177407;28;20046;-72
2022/05/25 06:22:15;;;;;;;7.45;4.65;;;;;;;11.86;100.00;101103.09;6103176;28;20529;-71
2022/05/25 06:25:17;;;;;;;8.55;4.45;;;;;;;11.92;100.00;101105.41;6175677;28;20046;-71
2022/05/25 06:28:18;;;;;;;8.48;4.85;;;;;;;11.97;100.00;101106.00;6175857;28;20058;-71
2022/05/25 06:31:20;;;;;;;8.50;4.78;;;;;;;11.98;100.00;101114.75;6175727;28;20664;-71
2022/05/25 06:34:21;;;;;;;8.98;5.55;;;;;;;12.10;100.00;101109.69;6175876;28;20137;-71
2022/05/25 06:37:26;;;;;;;8.27;5.32;;;;;;;12.13;100.00;101109.53;6180727;28;20510;-71
2022/05/25 06:40:27;;;;;;;7.72;4.80;;;;;;;12.18;100.00;101110.13;6175492;28;20521;-72
2022/05/25 06:43:29;;;;;;;9.68;5.25;;;;;;;12.33;100.00;101115.50;6175392;28;20150;-71
2022/05/25 06:46:30;;;;;;;10.98;5.32;;;;;;;12.42;100.00;101120.25;6193833;28;20050;-71
2022/05/25 06:49:32;;;;;;;8.10;4.65;;;;;;;12.51;100.00;101118.91;6199406;28;20126;-72
2022/05/25 06:52:35;;;;;;;9.98;5.03;;;;;;;12.53;100.00;101127.56;6199614;28;20047;-71
2022/05/25 06:55:36;;;;;;;7.45;4.72;;;;;;;12.57;100.00;101126.47;6199164;28;20046;-71
2022/05/25 06:58:37;;;;;;;9.57;5.25;;;;;;;12.60;100.00;101131.56;6199319;28;20053;-71
2022/05/25 07:01:42;;;;;;;6.97;4.25;;;;;;;12.63;100.00;101132.25;6197289;28;20050;-70
2022/05/25 07:04:46;;;;;;;8.82;5.40;;;;;;;12.64;100.00;101136.59;6191744;28;20067;-70
2022/05/25 07:07:49;;;;;;;7.05;4.80;;;;;;;12.69;100.00;101139.81;6171299;28;20051;-71
2022/05/25 07:10:51;;;;;;;7.82;4.18;;;;;;;12.82;100.00;101141.78;6173472;28;20055;-71
2022/05/25 07:13:54;;;;;;;7.18;4.32;;;;;;;12.87;100.00;101140.56;6166068;28;20057;-71
2022/05/25 07:16:55;;;;;;;7.05;4.22;;;;;;;12.91;100.00;101139.47;6174650;28;20640;-71
2022/05/25 07:19:57;;;;;;;5.47;3.45;;;;;;;12.99;100.00;101156.63;6174663;28;20062;-71
2022/05/25 07:22:59;;;;;;;5.47;3.17;;;;;;;13.05;100.00;101145.75;6174526;28;20058;-70
2022/05/25 07:26:01;;;;;;;7.40;3.38;;;;;;;13.01;100.00;101149.50;6174208;28;20054;-71
2022/05/25 07:29:02;;;;;;;5.88;3.55;;;;;;;13.07;100.00;101142.06;6174725;28;20422;-71
2022/05/25 07:32:09;;;;;;;6.70;3.20;;;;;;;13.21;100.00;101146.53;6174324;28;20439;-71
2022/05/25 07:35:13;;;;;;;5.90;3.28;;;;;;;13.35;100.00;101151.94;6174120;28;20529;-71
2022/05/25 07:38:15;;;;;;;8.52;3.45;;;;;;;13.37;100.00;101160.59;6174307;28;20043;-70
2022/05/25 07:41:18;;;;;;;3.97;2.67;;;;;;;13.45;100.00;101158.38;6174183;28;20046;-71
2022/05/25 07:44:27;;;;;;;3.20;2.20;;;;;;;13.52;100.00;101155.34;6174379;28;20050;-71
2022/05/25 07:47:31;;;;;;;3.30;2.10;;;;;;;13.58;100.00;101150.56;6174123;28;20429;-70
2022/05/25 07:50:33;;;;;;;4.38;2.08;;;;;;;13.64;100.00;101146.72;6174075;28;20121;-76
2022/05/25 07:56:55;;;;;;;1.40;1.23;;;;;;;13.75;100.00;101140.78;6171419;28;20130;-71
2022/05/25 07:59:57;;;;;;;1.77;1.25;;;;;;;13.87;100.00;101148.81;6173780;28;20074;-70
2022/05/25 08:06:17;;;;;;;2.08;1.15;;;;;;;14.00;100.00;101145.44;6173706;28;20058;-71
2022/05/25 08:09:20;;;;;;;1.70;1.05;;;;;;;14.05;99.21;101146.00;6172527;28;20054;-71
2022/05/25 08:12:22;;;;;;;2.40;1.73;;;;;;;14.18;93.86;101139.84;6173751;28;20043;-70
2022/05/25 08:15:25;;;;;;;3.75;1.40;;;;;;;14.21;96.16;101142.28;6171593;28;20043;-71
2022/05/25 08:18:26;;;;;;;1.92;1.30;;;;;;;14.33;96.19;101145.97;6172425;28;20046;-71
2022/05/25 08:21:28;;;;;;;3.20;1.40;;;;;;;14.49;95.69;101152.97;6173304;28;20054;-71
2022/05/25 08:24:32;;;;;;;2.58;0.98;;;;;;;14.53;93.88;101141.25;6173295;28;20058;-71
2022/05/25 08:27:36;;;;;;;1.92;1.25;;;;;;;14.60;95.15;101143.41;6173480;28;20042;-72
2022/05/25 08:30:39;;;;;;;1.35;0.90;;;;;;;14.56;94.48;101154.28;6173549;28;20137;-71
2022/05/25 08:33:43;;;;;;;4.78;0.98;;;;;;;14.68;94.84;101153.50;6173300;28;20079;-70
2022/05/25 08:36:44;;;;;;;1.20;1.10;;;;;;;14.83;92.67;101149.88;6173708;28;20062;-72
2022/05/25 08:39:47;;;;;;;2.50;1.25;;;;;;;14.89;91.92;101152.09;6173294;28;20046;-71
2022/05/25 08:42:53;;;;;;;4.00;0.98;;;;;;;14.99;86.11;101147.09;6177561;28;20244;-71
2022/05/25 08:46:00;;;;;;;1.52;1.00;;;;;;;15.07;86.47;101139.47;6188926;28;20066;-71
2022/05/25 08:49:03;;;;;;;1.13;0.70;;;;;;;15.24;86.40;101135.72;6170929;28;20047;-72
2022/05/25 08:52:17;;;;;;;1.30;1.10;;;;;;;15.14;80.59;101145.22;6178001;28;20518;-71
2022/05/25 08:55:32;;;;;;;1.35;0.95;;;;;;;14.97;84.52;101135.75;6174795;28;20529;-71
2022/05/25 08:58:43;;;;;;;1.52;1.20;;;;;;;15.08;86.20;101141.19;6173229;28;20053;-71
2022/05/25 09:01:50;;;;;;;7.25;1.38;;;;;;;15.17;87.24;101137.06;6175394;28;20050;-71
2022/05/25 09:04:57;;;;;;;0.95;0.85;;;;;;;15.20;86.05;101144.81;6163238;28;20047;-72
2022/05/25 09:08:09;;;;;;;3.13;1.20;;;;;;;15.25;83.38;101136.56;6154067;29;20213;-71
2022/05/25 09:11:16;;;;;;;2.80;1.50;;;;;;;15.21;85.02;101151.78;6172410;28;20055;-72
2022/05/25 09:14:21;;;;;;;4.20;1.05;;;;;;;15.18;84.46;101139.63;6167187;28;20051;-71
2022/05/25 09:17:26;;;;;;;3.05;1.38;;;;;;;15.23;85.29;101150.75;6164136;28;20058;-71
2022/05/25 09:20:33;;;;;;;1.88;1.00;;;;;;;15.31;81.79;101146.75;6176396;28;20053;-71
2022/05/25 09:23:35;;;;;;;2.58;1.63;;;;;;;15.20;81.19;101144.81;6153465;29;20062;-71
2022/05/25 09:26:38;;;;;;;1.80;1.10;;;;;;;15.11;83.86;101143.63;6152991;29;20062;-71
2022/05/25 09:29:40;;;;;;;4.25;1.23;;;;;;;15.09;84.77;101147.34;6159831;28;20057;-71
2022/05/25 09:32:50;;;;;;;1.55;1.35;;;;;;;15.07;85.39;101138.63;6177042;28;20090;-71
2022/05/25 09:35:57;;;;;;;1.85;1.33;;;;;;;15.12;83.45;101140.00;6178149;28;20093;-72
2022/05/25 09:39:04;;;;;;;1.83;1.65;;;;;;;15.16;84.43;101143.31;6171878;28;20047;-71
2022/05/25 09:42:07;;;;;;;2.70;1.55;;;;;;;15.31;83.76;101144.97;6176739;28;20054;-71
2022/05/25 09:45:13;;;;;;;2.25;1.23;;;;;;;15.39;85.35;101137.31;6176570;28;20495;-72
2022/05/25 09:48:19;;;;;;;1.50;0.90;;;;;;;15.42;80.17;101144.22;6175117;28;20058;-71
2022/05/25 09:51:26;;;;;;;2.08;1.23;;;;;;;15.67;76.25;101143.47;6172391;28;20047;-72
2022/05/25 09:54:32;;;;;;;4.22;1.70;;;;;;;15.79;78.61;101139.09;6175672;28;20129;-71
2022/05/25 09:57:39;;;;;;;1.23;1.13;;;;;;;15.93;80.25;101136.34;6171661;28;20042;-71
2022/05/25 10:00:55;;;;;;;3.55;1.52;;;;;;;16.25;83.36;101128.78;6164330;28;20051;-71
2022/05/25 10:03:57;;;;;;;2.55;1.40;;;;;;;16.46;79.40;101143.16;6169901;28;20055;-71
2022/05/25 10:06:59;;;;;;;3.20;1.50;;;;;;;16.60;77.45;101144.84;6170650;28;20127;-71
2022/05/25 10:10:04;;;;;;;1.85;1.35;;;;;;;16.69;75.04;101152.13;6170329;28;20054;-71
2022/05/25 10:13:15;;;;;;;1.92;1.33;;;;;;;16.48;74.15;101133.28;6168466;28;20046;-71
2022/05/25 10:16:26;;;;;;;1.75;1.58;;;;;;;16.66;73.73;101151.50;6175759;28;20395;-71
2022/05/25 10:19:27;;;;;;;7.32;1.10;;;;;;;16.70;70.12;101143.19;6167312;28;20043;-71
2022/05/25 10:22:33;;;;;;;3.30;1.70;;;;;;;16.77;71.90;101135.69;6173064;28;20530;-71
2022/05/25 10:25:41;;;;;;;4.00;1.33;;;;;;;16.92;73.29;101153.13;6184056;28;20043;-70
2022/05/25 10:28:53;;;;;;;1.80;1.45;;;;;;;17.16;72.82;101144.31;6175892;28;20406;-70
2022/05/25 10:38:34;;;;;;;2.75;1.25;;;;;;;16.58;69.49;101137.94;6175753;28;19917;-70
2022/05/25 10:41:39;;;;;;;1.40;1.08;;;;;;;16.64;69.79;101142.81;6175418;28;20054;-71
2022/05/25 10:44:51;;;;;;;1.30;1.20;;;;;;;16.57;70.32;101145.03;6175484;28;20086;-70
2022/05/25 10:48:07;;;;;;;2.78;1.40;;;;;;;16.35;72.85;101135.16;6175383;28;20050;-70
2022/05/25 10:51:13;;;;;;;1.27;1.17;;;;;;;16.26;72.13;101134.94;6176245;28;20053;-70
2022/05/25 10:58:26;;;;;;;1.95;1.10;;;;;;;16.59;73.61;101147.59;6170726;28;20047;-71
2022/05/25 11:01:48;;;;;;;3.25;1.92;;;;;;;16.62;74.28;101131.44;6174824;28;20042;-71
2022/05/25 11:05:09;;;;;;;2.03;1.15;;;;;;;16.76;70.52;101134.00;6168205;28;20499;-71
2022/05/25 11:08:21;;;;;;;1.77;1.20;;;;;;;17.27;69.93;101132.91;6174753;28;20185;-71
2022/05/25 11:11:32;;;;;;;1.52;1.10;;;;;;;17.52;69.16;101130.06;6163347;28;20639;-71
2022/05/25 11:14:50;;;;;;;1.00;0.90;;;;;;;17.75;65.23;101128.31;6155904;28;20070;-70
2022/05/25 11:18:06;;;;;;;1.20;0.88;;;;;;;17.91;68.42;101138.63;6160592;28;20050;-71
2022/05/25 11:21:21;;;;;;;1.98;1.08;;;;;;;17.97;63.91;101122.19;6154962;28;20069;-71
2022/05/25 11:24:50;;;;;;;0.70;0.70;;;;;;;18.08;64.54;101132.00;6159638;28;20066;-71
2022/05/25 11:28:03;;;;;;;;;;;;;;;17.78;65.34;101121.94;6164244;28;20070;-71
2022/05/25 11:31:22;;;;;;;0.80;0.80;;;;;;;17.71;64.85;101130.34;6174178;28;19922;-71
2022/05/25 11:34:41;;;;;;;1.27;0.88;;;;;;;18.15;60.99;101119.88;6174435;28;20065;-70
2022/05/25 11:37:57;;;;;;;0.80;0.80;;;;;;;18.41;60.97;101128.47;6174320;28;20146;-71
2022/05/25 11:41:15;;;;;;;3.33;0.80;;;;;;;18.57;57.02;101131.56;6174230;28;20059;-71
2022/05/25 11:44:30;;;;;;;2.25;0.90;;;;;;;18.75;59.11;101127.44;6193985;28;20050;-72
2022/05/25 11:47:49;;;;;;;0.95;0.75;;;;;;;18.80;57.53;101127.06;6198304;28;20073;-71
2022/05/25 11:51:02;;;;;;;1.83;1.02;;;;;;;18.44;58.33;101125.53;6198229;28;20421;-72
2022/05/25 11:54:19;;;;;;;1.70;0.95;;;;;;;18.62;57.80;101108.09;6197894;28;20050;-69
2022/05/25 11:57:26;;;;;;;4.78;0.93;;;;;;;19.14;59.45;101111.81;6198404;28;20054;-71
2022/05/25 12:00:36;;;;;;;2.33;0.93;;;;;;;19.55;56.65;101114.63;6197828;28;20046;-70
2022/05/25 12:04:02;;;;;;;0.70;0.65;;;;;;;20.08;58.10;101118.03;6198169;28;20054;-70
2022/05/25 12:07:34;;;;;;;1.30;1.13;;;;;;;20.30;51.37;101124.13;6198038;28;20050;-71
2022/05/25 12:10:38;;;;;;;1.25;0.70;;;;;;;19.60;52.89;101110.63;6149710;29;20051;-70
2022/05/25 12:13:46;;;;;;;0.70;0.70;;;;;;;19.07;56.85;101105.28;6149904;29;20051;-71
2022/05/25 12:16:50;;;;;;;0.98;0.65;;;;;;;19.47;56.34;101108.09;6149370;29;20054;-71
2022/05/25 12:19:54;;;;;;;0.85;0.70;;;;;;;20.02;54.10;101115.88;6165304;28;20058;-70
2022/05/25 12:23:00;;;;;;;4.20;0.82;;;;;;;19.90;51.54;101107.13;6173441;28;20058;-70
2022/05/25 12:26:05;;;;;;;1.95;0.70;;;;;;;19.20;52.86;101121.09;6173579;28;20053;-71
2022/05/25 12:29:16;;;;;;;2.15;1.10;;;;;;;18.84;56.20;101104.53;6173901;28;20043;-73
2022/05/25 12:32:18;;;;;;;1.25;0.80;;;;;;;19.26;60.56;101109.94;6174955;28;20715;-74
2022/05/25 12:35:20;;;;;;;3.22;0.70;;;;;;;19.50;54.06;101112.34;6194769;28;20129;-75
2022/05/25 12:38:26;;;;;;;0.60;0.60;;;;;;;19.23;54.55;101102.19;6198195;28;20050;-73
2022/05/25 12:41:32;;;;;;;0.55;0.55;;;;;;;19.19;55.89;101111.44;6197547;28;20509;-71
2022/05/25 12:51:34;;;;;;;0.60;0.50;;;;;;;18.40;55.73;101113.47;6197308;28;20085;-70
2022/05/25 12:54:43;;;;;;;2.08;0.55;;;;;;;18.32;55.78;101113.22;6197308;28;20061;-70
2022/05/25 12:57:50;;;;;;;1.13;0.60;;;;;;;18.22;56.00;101102.47;6197489;28;20050;-70
2022/05/25 13:01:03;;;;;;;0.60;0.60;;;;;;;18.07;56.32;101115.16;6195723;28;20058;-70
2022/05/25 13:04:34;;;;;;;0.85;0.60;;;;;;;17.96;57.94;101113.34;6197037;28;20046;-70
2022/05/25 13:07:43;;;;;;;0.50;0.50;;;;;;;18.31;59.50;101111.53;6197437;28;20073;-71
2022/05/25 13:11:01;;;;;;;3.75;0.60;;;;;;;18.61;57.40;101113.53;6197104;28;20058;-70
2022/05/25 13:14:06;;;;;;;0.60;0.60;;;;;;;18.72;57.97;101102.91;6197117;28;20057;-70
2022/05/25 13:17:07;;;;;;;0.63;0.40;;;;;;;19.15;55.75;101110.81;6197243;28;20055;-70
2022/05/25 13:20:15;;;;;;;1.20;0.68;;;;;;;19.65;51.46;101096.88;6197158;28;20639;-72
2022/05/25 13:23:54;;;;;;;1.23;0.70;;;;;;;19.25;53.44;101095.75;6197264;28;20061;-71
2022/05/25 13:27:25;;;;;;;1.35;0.70;;;;;;;19.17;54.18;101113.38;6195612;28;20054;-70
2022/05/25 13:30:31;;;;;;;1.10;0.80;;;;;;;19.09;53.99;101103.34;6201453;28;20050;-70
2022/05/25 13:33:41;;;;;;;0.68;0.55;;;;;;;18.93;54.41;101101.09;6201545;28;20054;-70
2022/05/25 13:36:45;;;;;;;0.60;0.60;;;;;;;18.70;55.18;101096.84;6201529;28;20061;-71
2022/05/25 13:39:46;;;;;;;1.20;0.70;;;;;;;18.81;56.02;101093.31;6201418;28;20135;-71
2022/05/25 13:42:50;;;;;;;5.68;1.35;;;;;;;19.41;53.74;101094.47;6201079;28;20051;-71
2022/05/25 13:45:52;;;;;;;0.40;0.40;;;;;;;19.96;52.98;101089.75;6201155;28;20053;-76
2022/05/25 13:48:54;;;;;;;0.70;0.52;;;;;;;19.93;50.83;101084.66;6201063;28;20505;-72
2022/05/25 13:52:17;;;;;;;1.10;0.50;;;;;;;19.87;49.98;101086.06;6200859;28;20399;-71
2022/05/25 13:55:26;;;;;;;1.20;0.70;;;;;;;20.32;46.06;101091.00;6200374;28;20414;-73
2022/05/25 13:58:29;;;;;;;1.35;0.50;;;;;;;20.62;46.95;101087.44;6200102;28;20465;-72
2022/05/25 14:01:31;;;;;;;0.50;0.50;;;;;;;20.51;49.82;101093.72;6200513;28;20054;-73
2022/05/25 14:04:33;;;;;;;0.40;0.40;;;;;;;20.54;46.22;101079.28;6200713;28;20050;-72
2022/05/25 14:07:38;;;;;;;0.52;0.40;;;;;;;20.77;46.59;101080.69;6200626;28;20051;-72
2022/05/25 14:10:55;;;;;;;0.43;0.43;;;;;;;20.46;49.13;101082.59;6200515;28;20049;-74
2022/05/25 14:13:58;;;;;;;1.02;0.70;;;;;;;20.11;51.29;101088.38;6200177;28;20112;-71
2022/05/25 14:17:03;;;;;;;0.50;0.50;;;;;;;19.68;53.14;101070.81;6200385;28;20046;-71
2022/05/25 14:20:14;;;;;;;0.47;0.47;;;;;;;19.31;54.77;101078.41;6174291;28;20042;-71
2022/05/25 14:23:18;;;;;;;1.52;0.85;;;;;;;19.05;54.69;101082.44;6176103;28;20057;-70
2022/05/25 14:26:23;;;;;;;0.77;0.70;;;;;;;19.02;56.13;101084.38;6176028;28;20053;-71
2022/05/25 14:29:29;;;;;;;1.15;0.70;;;;;;;19.11;55.11;101081.91;6175742;28;20050;-71
2022/05/25 14:32:32;;;;;;;2.00;0.50;;;;;;;19.02;53.63;101086.19;6175761;28;20051;-71
2022/05/25 14:35:35;;;;;;;1.00;0.80;;;;;;;19.00;52.72;101090.81;6175761;28;20054;-71
2022/05/25 14:38:38;;;;;;;0.60;0.60;;;;;;;19.08;54.07;101092.84;6175418;28;20055;-71
2022/05/25 14:41:48;;;;;;;0.85;0.47;;;;;;;19.02;52.56;101086.19;6175725;28;20522;-71
2022/05/25 14:44:54;;;;;;;0.40;0.40;;;;;;;18.94;53.51;101085.97;6175401;28;20062;-71
2022/05/25 14:48:07;;;;;;;0.60;0.47;;;;;;;18.86;53.21;101094.63;6175763;28;20047;-72
2022/05/25 14:51:09;;;;;;;3.22;1.40;;;;;;;18.80;56.06;101088.94;6175354;28;20062;-71
2022/05/25 14:54:14;;;;;;;0.50;0.50;;;;;;;18.93;54.33;101085.13;6175517;28;20054;-71
2022/05/25 14:57:18;;;;;;;0.43;0.43;;;;;;;19.18;53.87;101097.25;6186657;28;20050;-72
2022/05/25 15:00:22;;;;;;;3.55;0.50;;;;;;;19.21;53.16;101089.03;6199391;28;20137;-72
2022/05/25 15:03:30;;;;;;;0.47;0.47;;;;;;;19.20;52.55;101105.94;6199464;28;20050;-71